createdAt,value
2019-04-23T00:00:15.825Z,82.40
2019-04-23T00:03:11.465Z,82.30
2019-04-23T00:06:12.104Z,80.90
2019-04-23T00:08:58.062Z,81.60
2019-04-23T00:11:46.163Z,82.30
2019-04-23T00:14:49.871Z,82.30
2019-04-23T00:17:37.325Z,81.40
2019-04-23T00:20:27.272Z,82.60
2019-04-23T00:23:25.081Z,82.90
2019-04-23T00:29:14.943Z,84.00
2019-04-23T00:32:04.812Z,84.00
2019-04-23T00:35:00.665Z,84.10
2019-04-23T00:37:47.436Z,83.80
2019-04-23T00:40:45.407Z,83.80
2019-04-23T00:43:40.682Z,83.80
2019-04-23T00:46:28.981Z,83.60
2019-04-23T00:52:24.341Z,83.90
2019-04-23T00:58:06.588Z,84.80
2019-04-23T01:00:52.482Z,85.80
2019-04-23T01:03:50.398Z,86.40
2019-04-23T01:06:37.883Z,88.20
2019-04-23T01:09:39.328Z,90.00
2019-04-23T01:12:38.388Z,90.60
2019-04-23T01:15:25.820Z,90.90
2019-04-23T01:18:28.219Z,91.50
2019-04-23T01:20:54.892Z,91.70
2019-04-23T01:24:15.373Z,92.30
2019-04-23T01:30:31.598Z,93.10
2019-04-23T01:33:31.361Z,93.00
2019-04-23T01:36:23.340Z,93.20
2019-04-23T01:39:14.458Z,93.60
2019-04-23T01:42:07.094Z,93.70
2019-04-23T01:45:05.000Z,94.20
2019-04-23T01:47:49.617Z,94.50
2019-04-23T01:56:30.701Z,94.80
2019-04-23T01:59:26.271Z,94.80
2019-04-23T02:02:22.486Z,94.40
2019-04-23T02:05:17.357Z,94.80
2019-04-23T02:08:06.494Z,95.00
2019-04-23T02:10:56.322Z,95.70
2019-04-23T02:13:48.970Z,95.50
2019-04-23T02:16:57.896Z,95.70
2019-04-23T02:19:38.775Z,95.60
2019-04-23T02:23:05.000Z,95.60
2019-04-23T02:25:53.832Z,95.80
2019-04-23T02:28:42.861Z,96.00
2019-04-23T02:40:30.534Z,97.40
2019-04-23T02:43:15.284Z,97.30
2019-04-23T02:51:52.817Z,97.00
2019-04-23T02:54:51.093Z,96.90
2019-04-23T03:01:03.585Z,96.50
2019-04-23T03:03:29.657Z,96.70
2019-04-23T03:06:29.851Z,96.30
2019-04-23T03:09:33.953Z,95.70
2019-04-23T03:12:06.353Z,95.80
2019-04-23T03:15:15.190Z,95.10
2019-04-23T03:21:54.356Z,94.90
2019-04-23T03:39:52.945Z,95.40
2019-04-23T03:42:30.516Z,95.30
2019-04-23T03:45:25.284Z,95.80
2019-04-23T03:48:20.031Z,95.90
2019-04-23T03:51:03.026Z,96.10
2019-04-23T03:54:25.986Z,96.10
2019-04-23T03:57:09.804Z,96.00
2019-04-23T04:05:41.439Z,96.30
2019-04-23T04:08:25.782Z,96.70
2019-04-23T04:14:21.322Z,97.10
2019-04-23T04:17:10.250Z,97.30
2019-04-23T04:19:56.176Z,96.80
2019-04-23T04:23:00.385Z,97.00
2019-04-23T04:25:48.679Z,97.00
2019-04-23T04:28:48.513Z,96.70
2019-04-23T04:31:45.747Z,97.60
2019-04-23T04:34:55.708Z,97.30
2019-04-23T04:37:36.084Z,97.40
2019-04-23T04:40:29.006Z,97.30
2019-04-23T04:43:19.097Z,96.90
2019-04-23T04:49:05.535Z,96.80
2019-04-23T04:54:47.635Z,96.90
2019-04-23T04:57:36.507Z,96.80
2019-04-23T05:00:39.738Z,96.90
2019-04-23T05:06:16.180Z,96.80
2019-04-23T05:12:01.111Z,97.40
2019-04-23T05:15:04.852Z,97.50
2019-04-23T05:18:17.321Z,97.30
2019-04-23T05:20:53.532Z,97.50
2019-04-23T05:26:41.783Z,97.70
2019-04-23T05:29:19.961Z,97.40
2019-04-23T05:32:23.751Z,97.00
2019-04-23T05:35:20.344Z,97.50
2019-04-23T05:41:10.343Z,97.30
2019-04-23T05:43:58.034Z,96.90
2019-04-23T05:46:45.856Z,96.80
2019-04-23T05:49:43.078Z,96.30
2019-04-23T05:52:38.063Z,96.80
2019-04-23T05:55:19.044Z,96.80
2019-04-23T05:58:22.153Z,96.30
2019-04-23T06:07:24.477Z,96.10
2019-04-23T06:10:04.873Z,96.30
2019-04-23T06:13:00.831Z,96.70
2019-04-23T06:16:05.017Z,95.90
2019-04-23T06:18:44.738Z,96.00
2019-04-23T06:21:44.774Z,95.60
2019-04-23T06:30:17.742Z,94.30
2019-04-23T06:33:14.587Z,95.30
2019-04-23T06:36:05.515Z,95.90
2019-04-23T06:41:50.042Z,94.70
2019-04-23T06:47:54.176Z,94.50
2019-04-23T06:50:52.662Z,91.50
2019-04-23T06:53:37.476Z,90.50
2019-04-23T06:59:25.993Z,91.90
2019-04-23T07:02:21.725Z,89.10
2019-04-23T07:08:04.389Z,91.00
2019-04-23T07:11:08.339Z,89.90
2019-04-23T07:16:48.285Z,80.40
2019-04-23T07:22:32.313Z,85.40
2019-04-23T07:25:22.144Z,85.80
2019-04-23T07:28:28.999Z,80.50
2019-04-23T07:31:24.272Z,81.40
2019-04-23T07:36:58.820Z,77.10
2019-04-23T07:43:33.543Z,71.80
2019-04-23T07:46:34.972Z,73.10
2019-04-23T07:49:23.642Z,74.70
2019-04-23T07:55:19.460Z,68.60
2019-04-23T07:58:15.539Z,68.40
2019-04-23T08:01:08.394Z,66.60
2019-04-23T08:03:57.720Z,63.60
2019-04-23T08:06:46.370Z,65.10
2019-04-23T08:09:46.158Z,66.50
2019-04-23T08:12:31.566Z,66.10
2019-04-23T08:18:19.875Z,66.80
2019-04-23T08:21:10.122Z,65.30
2019-04-23T08:24:38.012Z,67.30
2019-04-23T08:30:25.557Z,62.80
2019-04-23T08:33:17.656Z,61.30
2019-04-23T08:36:20.108Z,61.40
2019-04-23T08:39:07.072Z,63.30
2019-04-23T08:42:24.981Z,60.50
2019-04-23T08:51:26.206Z,59.50
2019-04-23T08:54:03.430Z,59.60
2019-04-23T08:57:02.709Z,59.00
2019-04-23T08:59:50.260Z,59.60
2019-04-23T09:08:32.684Z,58.80
2019-04-23T09:11:43.460Z,59.30
2019-04-23T09:14:08.912Z,59.10
2019-04-23T09:17:16.761Z,59.50
2019-04-23T09:20:21.871Z,55.90
2019-04-23T09:23:08.016Z,53.50
2019-04-23T09:32:22.283Z,51.30
2019-04-23T09:38:39.658Z,50.80
2019-04-23T09:41:34.457Z,50.80
2019-04-23T09:44:58.143Z,51.00
2019-04-23T09:48:04.374Z,48.60
2019-04-23T09:51:10.255Z,48.90
2019-04-23T09:54:04.304Z,48.70
2019-04-23T09:59:49.782Z,48.60
2019-04-23T10:02:29.133Z,50.50
2019-04-23T10:05:18.335Z,50.10
2019-04-23T10:08:10.779Z,49.80
2019-04-23T10:10:53.340Z,48.40
2019-04-23T10:13:45.199Z,50.00
2019-04-23T10:16:37.063Z,49.00
2019-04-23T10:19:28.794Z,51.40
2019-04-23T10:22:20.267Z,50.20
2019-04-23T10:25:12.969Z,48.20
2019-04-23T10:28:10.904Z,48.10
2019-04-23T10:31:00.738Z,47.80
2019-04-23T10:33:52.914Z,48.80
2019-04-23T10:36:44.298Z,50.40
2019-04-23T10:39:39.068Z,49.80
2019-04-23T10:42:31.429Z,49.20
2019-04-23T10:46:03.957Z,51.20
2019-04-23T10:55:25.599Z,49.30
2019-04-23T10:58:22.842Z,48.30
2019-04-23T11:07:09.971Z,46.60
2019-04-23T11:09:56.980Z,47.40
2019-04-23T11:13:17.737Z,47.70
2019-04-23T11:16:27.592Z,49.20
2019-04-23T11:21:56.089Z,49.10
2019-04-23T11:27:35.074Z,50.40
2019-04-23T11:33:20.026Z,48.40
2019-04-23T11:38:32.245Z,48.30
2019-04-23T11:39:28.435Z,48.50
2019-04-23T11:42:06.741Z,48.80
2019-04-23T11:48:22.418Z,46.80
2019-04-23T11:50:49.913Z,45.90
2019-04-23T11:51:20.401Z,46.50
2019-04-23T11:53:52.547Z,46.60
2019-04-23T11:59:31.595Z,47.00
2019-04-23T12:02:40.137Z,49.20
2019-04-23T12:05:41.659Z,48.40
2019-04-23T12:08:45.519Z,49.40
2019-04-23T12:11:54.425Z,46.90
2019-04-23T12:15:18.109Z,47.40
2019-04-23T12:17:51.203Z,47.00
2019-04-23T12:21:08.305Z,47.70
2019-04-23T12:23:54.731Z,48.80
2019-04-23T12:26:44.401Z,48.30
2019-04-23T12:29:44.531Z,48.30
2019-04-23T12:35:29.076Z,48.10
2019-04-23T12:41:26.506Z,48.20
2019-04-23T12:44:34.849Z,49.50
2019-04-23T12:47:18.815Z,49.30
2019-04-23T12:50:31.062Z,49.80
2019-04-23T12:52:53.282Z,49.50
2019-04-23T12:58:36.064Z,49.20
2019-04-23T13:01:42.724Z,50.40
2019-04-23T13:04:24.880Z,49.80
2019-04-23T13:07:25.789Z,49.30
2019-04-23T13:10:19.341Z,50.00
2019-04-23T13:13:16.687Z,48.00
2019-04-23T13:18:49.782Z,48.60
2019-04-23T13:25:23.886Z,45.80
2019-04-23T13:28:06.611Z,45.40
2019-04-23T13:30:59.393Z,44.20
2019-04-23T13:34:06.927Z,46.50
2019-04-23T13:36:45.547Z,45.70
2019-04-23T13:39:40.388Z,44.50
2019-04-23T13:42:40.371Z,42.80
2019-04-23T13:48:15.082Z,42.10
2019-04-23T13:51:25.669Z,43.00
2019-04-23T13:54:08.169Z,43.80
2019-04-23T13:57:36.497Z,45.40
2019-04-23T13:59:54.065Z,43.90
2019-04-23T14:02:42.440Z,45.00
2019-04-23T14:06:00.645Z,45.60
2019-04-23T14:08:53.680Z,47.10
2019-04-23T14:11:51.556Z,49.30
2019-04-23T14:14:56.763Z,51.20
2019-04-23T14:17:59.925Z,51.30
2019-04-23T14:23:27.236Z,54.10
2019-04-23T14:29:01.179Z,54.40
2019-04-23T14:32:06.797Z,55.70
2019-04-23T14:37:58.123Z,54.00
2019-04-23T14:40:42.969Z,54.20
2019-04-23T14:43:35.604Z,54.10
2019-04-23T14:49:30.944Z,56.30
2019-04-23T14:52:23.278Z,55.00
2019-04-23T14:55:40.189Z,54.70
2019-04-23T14:58:20.770Z,56.30
2019-04-23T15:06:54.840Z,54.70
2019-04-23T15:09:53.211Z,54.20
2019-04-23T15:15:26.841Z,54.10
2019-04-23T15:18:45.189Z,54.80
2019-04-23T15:24:23.088Z,55.40
2019-04-23T15:29:53.825Z,53.80
2019-04-23T15:33:16.813Z,55.60
2019-04-23T15:36:02.509Z,54.50
2019-04-23T15:38:55.886Z,56.40
2019-04-23T15:42:02.948Z,55.70
2019-04-23T15:44:28.179Z,55.00
2019-04-23T15:47:26.491Z,55.90
2019-04-23T15:50:23.577Z,58.00
2019-04-23T15:53:05.961Z,57.00
2019-04-23T15:56:16.413Z,57.30
2019-04-23T16:01:40.476Z,57.90
2019-04-23T16:04:18.129Z,58.70
2019-04-23T16:07:09.857Z,58.30
2019-04-23T16:13:33.942Z,58.80
2019-04-23T16:16:28.193Z,60.00
2019-04-23T16:19:22.042Z,58.30
2019-04-23T16:22:10.761Z,59.70
2019-04-23T16:25:06.814Z,60.20
2019-04-23T16:31:00.847Z,60.20
2019-04-23T16:33:54.263Z,59.60
2019-04-23T16:36:43.806Z,60.60
2019-04-23T16:39:39.085Z,59.80
2019-04-23T16:42:40.063Z,60.20
2019-04-23T16:45:45.973Z,59.60
2019-04-23T16:48:34.606Z,59.90
2019-04-23T16:51:24.636Z,61.20
2019-04-23T17:02:54.688Z,61.70
2019-04-23T17:11:31.740Z,63.80
2019-04-23T17:14:44.334Z,63.40
2019-04-23T17:17:09.358Z,62.30
2019-04-23T17:23:03.908Z,62.30
2019-04-23T17:25:59.300Z,63.70
2019-04-23T17:28:44.637Z,64.20
2019-04-23T17:34:40.864Z,64.40
2019-04-23T17:40:45.107Z,65.40
2019-04-23T17:43:26.447Z,66.60
2019-04-23T17:46:18.137Z,66.50
2019-04-23T17:49:10.804Z,66.20
2019-04-23T17:52:03.207Z,66.30
2019-04-23T17:57:55.874Z,66.10
2019-04-23T18:00:57.132Z,66.30
2019-04-23T18:06:37.311Z,66.90
2019-04-23T18:09:27.794Z,68.00
2019-04-23T18:12:25.437Z,70.20
2019-04-23T18:15:04.874Z,70.10
2019-04-23T18:18:01.932Z,69.60
2019-04-23T18:21:23.307Z,70.20
2019-04-23T18:24:27.310Z,71.30
2019-04-23T18:27:19.171Z,72.30
2019-04-23T18:30:16.077Z,73.30
2019-04-23T18:33:58.142Z,73.50
2019-04-23T18:36:08.003Z,75.20
2019-04-23T18:39:06.370Z,76.80
2019-04-23T18:42:11.600Z,78.40
2019-04-23T18:48:03.760Z,79.50
2019-04-23T18:50:46.771Z,80.50
2019-04-23T18:56:23.157Z,81.50
2019-04-23T19:02:38.825Z,91.70
2019-04-23T19:05:28.274Z,92.60
2019-04-23T19:08:42.474Z,94.20
2019-04-23T19:11:34.324Z,94.70
2019-04-23T19:14:30.741Z,94.10
2019-04-23T19:20:16.296Z,93.80
2019-04-23T19:23:09.534Z,93.40
2019-04-23T19:25:43.766Z,93.40
2019-04-23T19:28:47.415Z,94.00
2019-04-23T19:31:58.352Z,93.70
2019-04-23T19:34:43.889Z,93.50
2019-04-23T19:37:49.062Z,93.30
2019-04-23T19:40:38.017Z,93.10
2019-04-23T19:43:34.418Z,93.70
2019-04-23T19:46:39.748Z,94.00
2019-04-23T19:52:34.284Z,94.50
2019-04-23T19:54:58.834Z,94.80
2019-04-23T19:58:17.912Z,94.00
2019-04-23T20:03:49.690Z,94.20
2019-04-23T20:07:00.410Z,94.20
2019-04-23T20:15:13.456Z,94.40
2019-04-23T20:18:05.801Z,94.40
2019-04-23T20:26:59.554Z,95.00
2019-04-23T20:30:22.971Z,95.70
2019-04-23T20:36:25.884Z,95.90
2019-04-23T20:39:16.380Z,96.10
2019-04-23T20:47:51.471Z,96.60
2019-04-23T20:50:39.256Z,96.90
2019-04-23T20:54:00.449Z,96.90
2019-04-23T20:56:51.133Z,96.80
2019-04-23T20:59:40.861Z,97.30
2019-04-23T21:03:06.700Z,97.20
2019-04-23T21:05:41.216Z,97.60
2019-04-23T21:08:45.095Z,97.50
2019-04-23T21:11:25.039Z,97.60
2019-04-23T21:14:26.853Z,97.90
2019-04-23T21:17:07.416Z,98.30
2019-04-23T21:20:08.774Z,98.90
2019-04-23T21:28:45.368Z,99.90
2019-04-23T21:31:56.166Z,99.90
2019-04-23T21:34:34.119Z,99.90
2019-04-23T21:37:49.518Z,99.90
2019-04-23T21:43:58.922Z,99.90
2019-04-23T21:46:40.235Z,99.90
2019-04-23T21:52:17.944Z,99.90
2019-04-23T21:55:14.894Z,99.90
2019-04-23T21:58:07.310Z,99.90
2019-04-23T22:01:21.231Z,99.90
2019-04-23T22:04:24.641Z,99.90
2019-04-23T22:10:00.579Z,99.90
2019-04-23T22:13:47.464Z,99.90
2019-04-23T22:16:00.123Z,99.90
2019-04-23T22:18:38.066Z,99.90
2019-04-23T22:24:12.238Z,99.90
2019-04-23T22:27:09.869Z,99.90
2019-04-23T22:30:02.951Z,99.90
2019-04-23T22:33:03.271Z,99.90
2019-04-23T22:36:04.617Z,99.90
2019-04-23T22:38:49.186Z,99.90
2019-04-23T22:41:44.035Z,99.90
2019-04-23T22:44:39.153Z,99.90
2019-04-23T22:47:33.585Z,99.90
2019-04-23T22:50:24.756Z,99.90
2019-04-23T22:53:09.194Z,99.90
2019-04-23T22:56:10.624Z,99.90
2019-04-23T22:59:09.686Z,99.90
2019-04-23T23:02:07.554Z,99.90
2019-04-23T23:05:10.312Z,99.90
2019-04-23T23:07:55.804Z,99.90
2019-04-23T23:10:44.578Z,99.90
2019-04-23T23:13:52.248Z,99.90
2019-04-23T23:16:28.361Z,99.90
2019-04-23T23:22:20.288Z,99.90
2019-04-23T23:25:11.447Z,99.90
2019-04-23T23:28:06.288Z,99.90
2019-04-23T23:31:02.015Z,99.90
2019-04-23T23:33:52.327Z,99.90
2019-04-23T23:36:51.392Z,99.90
2019-04-23T23:39:37.176Z,99.90
2019-04-23T23:48:16.515Z,99.90
2019-04-23T23:57:12.057Z,99.90
